sensor_id;sensor_type;location;lat;lon;timestamp;P1;durP1;ratioP1;P2;durP2;ratioP2
23608;SDS011;11982;50.810;4.442;2022-10-31T00:00:17;29.83;;;15.38;;
23608;SDS011;11982;50.810;4.442;2022-10-31T00:02:43;31.38;;;15.15;;
23608;SDS011;11982;50.810;4.442;2022-10-31T00:05:09;27.95;;;15.35;;
23608;SDS011;11982;50.810;4.442;2022-10-31T00:07:35;35.35;;;15.90;;
23608;SDS011;11982;50.810;4.442;2022-10-31T00:10:00;41.13;;;16.00;;
23608;SDS011;11982;50.810;4.442;2022-10-31T00:12:26;31.00;;;15.32;;
23608;SDS011;11982;50.810;4.442;2022-10-31T00:14:52;39.15;;;15.68;;
23608;SDS011;11982;50.810;4.442;2022-10-31T00:17:17;34.75;;;15.57;;
23608;SDS011;11982;50.810;4.442;2022-10-31T00:19:43;31.73;;;15.85;;
23608;SDS011;11982;50.810;4.442;2022-10-31T00:22:09;32.97;;;15.20;;
23608;SDS011;11982;50.810;4.442;2022-10-31T00:24:35;32.25;;;15.75;;
23608;SDS011;11982;50.810;4.442;2022-10-31T00:27:00;28.98;;;16.20;;
23608;SDS011;11982;50.810;4.442;2022-10-31T00:29:26;32.33;;;16.27;;
23608;SDS011;11982;50.810;4.442;2022-10-31T00:31:52;28.83;;;16.02;;
23608;SDS011;11982;50.810;4.442;2022-10-31T00:34:17;34.72;;;15.93;;
23608;SDS011;11982;50.810;4.442;2022-10-31T00:36:43;28.15;;;15.02;;
23608;SDS011;11982;50.810;4.442;2022-10-31T00:39:08;30.67;;;15.65;;
23608;SDS011;11982;50.810;4.442;2022-10-31T00:41:34;38.00;;;17.00;;
23608;SDS011;11982;50.810;4.442;2022-10-31T00:44:00;35.65;;;16.83;;
23608;SDS011;11982;50.810;4.442;2022-10-31T00:46:25;34.38;;;16.75;;
23608;SDS011;11982;50.810;4.442;2022-10-31T00:48:51;37.63;;;17.35;;
23608;SDS011;11982;50.810;4.442;2022-10-31T00:51:18;39.60;;;17.08;;
23608;SDS011;11982;50.810;4.442;2022-10-31T00:53:44;32.85;;;17.85;;
23608;SDS011;11982;50.810;4.442;2022-10-31T00:56:09;37.65;;;16.55;;
23608;SDS011;11982;50.810;4.442;2022-10-31T00:58:35;41.13;;;18.13;;
23608;SDS011;11982;50.810;4.442;2022-10-31T01:01:00;33.83;;;16.88;;
23608;SDS011;11982;50.810;4.442;2022-10-31T01:03:27;40.25;;;18.75;;
23608;SDS011;11982;50.810;4.442;2022-10-31T01:05:59;40.58;;;17.83;;
23608;SDS011;11982;50.810;4.442;2022-10-31T01:08:32;38.95;;;18.92;;
23608;SDS011;11982;50.810;4.442;2022-10-31T01:11:12;36.90;;;17.75;;
23608;SDS011;11982;50.810;4.442;2022-10-31T01:13:38;45.03;;;18.67;;
23608;SDS011;11982;50.810;4.442;2022-10-31T01:16:05;41.53;;;20.02;;
23608;SDS011;11982;50.810;4.442;2022-10-31T01:18:32;45.33;;;19.42;;
23608;SDS011;11982;50.810;4.442;2022-10-31T01:20:59;42.40;;;18.88;;
23608;SDS011;11982;50.810;4.442;2022-10-31T01:23:26;43.75;;;19.15;;
23608;SDS011;11982;50.810;4.442;2022-10-31T01:26:26;37.60;;;18.90;;
23608;SDS011;11982;50.810;4.442;2022-10-31T01:28:50;44.08;;;19.52;;
23608;SDS011;11982;50.810;4.442;2022-10-31T01:31:18;41.38;;;20.42;;
23608;SDS011;11982;50.810;4.442;2022-10-31T01:33:45;48.25;;;21.02;;
23608;SDS011;11982;50.810;4.442;2022-10-31T01:36:44;46.70;;;21.85;;
23608;SDS011;11982;50.810;4.442;2022-10-31T01:39:04;56.97;;;22.83;;
23608;SDS011;11982;50.810;4.442;2022-10-31T01:41:32;47.38;;;21.90;;
23608;SDS011;11982;50.810;4.442;2022-10-31T01:44:00;39.58;;;21.73;;
23608;SDS011;11982;50.810;4.442;2022-10-31T01:46:32;41.65;;;21.67;;
23608;SDS011;11982;50.810;4.442;2022-10-31T01:49:03;44.70;;;21.98;;
23608;SDS011;11982;50.810;4.442;2022-10-31T01:51:35;48.25;;;21.52;;
23608;SDS011;11982;50.810;4.442;2022-10-31T01:54:07;42.75;;;21.63;;
23608;SDS011;11982;50.810;4.442;2022-10-31T01:56:38;43.47;;;21.33;;
23608;SDS011;11982;50.810;4.442;2022-10-31T01:59:08;49.83;;;21.30;;
23608;SDS011;11982;50.810;4.442;2022-10-31T02:01:36;49.40;;;22.80;;
23608;SDS011;11982;50.810;4.442;2022-10-31T02:04:03;45.92;;;22.20;;
23608;SDS011;11982;50.810;4.442;2022-10-31T02:08:57;54.47;;;24.02;;
23608;SDS011;11982;50.810;4.442;2022-10-31T02:11:25;47.90;;;21.98;;
23608;SDS011;11982;50.810;4.442;2022-10-31T02:13:53;46.85;;;23.80;;
23608;SDS011;11982;50.810;4.442;2022-10-31T02:16:19;47.55;;;23.30;;
23608;SDS011;11982;50.810;4.442;2022-10-31T02:18:44;55.80;;;24.60;;
23608;SDS011;11982;50.810;4.442;2022-10-31T02:21:13;48.00;;;23.58;;
23608;SDS011;11982;50.810;4.442;2022-10-31T02:34:36;50.80;;;24.48;;
23608;SDS011;11982;50.810;4.442;2022-10-31T02:42:55;56.90;;;24.67;;
23608;SDS011;11982;50.810;4.442;2022-10-31T02:47:58;51.47;;;24.88;;
23608;SDS011;11982;50.810;4.442;2022-10-31T02:50:28;60.00;;;25.40;;
23608;SDS011;11982;50.810;4.442;2022-10-31T02:52:58;56.50;;;24.15;;
23608;SDS011;11982;50.810;4.442;2022-10-31T02:58:01;64.93;;;25.38;;
23608;SDS011;11982;50.810;4.442;2022-10-31T03:00:32;49.75;;;23.88;;
23608;SDS011;11982;50.810;4.442;2022-10-31T03:03:09;52.08;;;24.70;;
23608;SDS011;11982;50.810;4.442;2022-10-31T03:06:31;52.83;;;24.42;;
23608;SDS011;11982;50.810;4.442;2022-10-31T03:09:11;55.67;;;24.38;;
23608;SDS011;11982;50.810;4.442;2022-10-31T03:11:44;54.05;;;24.48;;
23608;SDS011;11982;50.810;4.442;2022-10-31T03:14:20;56.65;;;25.13;;
23608;SDS011;11982;50.810;4.442;2022-10-31T03:16:55;52.03;;;24.67;;
23608;SDS011;11982;50.810;4.442;2022-10-31T03:24:23;51.97;;;24.63;;
23608;SDS011;11982;50.810;4.442;2022-10-31T03:26:54;52.33;;;23.85;;
23608;SDS011;11982;50.810;4.442;2022-10-31T03:29:24;44.92;;;23.70;;
23608;SDS011;11982;50.810;4.442;2022-10-31T03:31:57;46.13;;;22.42;;
23608;SDS011;11982;50.810;4.442;2022-10-31T03:34:25;53.53;;;24.17;;
23608;SDS011;11982;50.810;4.442;2022-10-31T03:36:54;55.45;;;24.40;;
23608;SDS011;11982;50.810;4.442;2022-10-31T03:39:22;53.42;;;25.20;;
23608;SDS011;11982;50.810;4.442;2022-10-31T03:41:53;58.70;;;24.80;;
23608;SDS011;11982;50.810;4.442;2022-10-31T03:44:22;47.87;;;24.60;;
23608;SDS011;11982;50.810;4.442;2022-10-31T03:46:49;55.97;;;24.40;;
23608;SDS011;11982;50.810;4.442;2022-10-31T03:49:15;50.40;;;23.98;;
23608;SDS011;11982;50.810;4.442;2022-10-31T03:54:42;45.50;;;24.25;;
23608;SDS011;11982;50.810;4.442;2022-10-31T03:59:56;46.00;;;24.42;;
23608;SDS011;11982;50.810;4.442;2022-10-31T04:02:28;53.40;;;25.38;;
23608;SDS011;11982;50.810;4.442;2022-10-31T04:04:57;56.53;;;26.02;;
23608;SDS011;11982;50.810;4.442;2022-10-31T04:07:25;52.30;;;25.08;;
23608;SDS011;11982;50.810;4.442;2022-10-31T04:09:55;54.45;;;24.85;;
23608;SDS011;11982;50.810;4.442;2022-10-31T04:12:22;63.25;;;26.02;;
23608;SDS011;11982;50.810;4.442;2022-10-31T04:14:50;65.05;;;27.17;;
23608;SDS011;11982;50.810;4.442;2022-10-31T04:17:17;55.08;;;26.70;;
23608;SDS011;11982;50.810;4.442;2022-10-31T04:19:46;62.72;;;25.77;;
23608;SDS011;11982;50.810;4.442;2022-10-31T04:22:12;58.22;;;27.85;;
23608;SDS011;11982;50.810;4.442;2022-10-31T04:24:38;62.58;;;27.33;;
23608;SDS011;11982;50.810;4.442;2022-10-31T04:27:05;62.38;;;27.67;;
23608;SDS011;11982;50.810;4.442;2022-10-31T04:29:31;60.08;;;26.48;;
23608;SDS011;11982;50.810;4.442;2022-10-31T04:31:56;57.80;;;26.40;;
23608;SDS011;11982;50.810;4.442;2022-10-31T04:34:22;58.20;;;26.73;;
23608;SDS011;11982;50.810;4.442;2022-10-31T04:36:47;59.50;;;26.05;;
23608;SDS011;11982;50.810;4.442;2022-10-31T04:39:13;52.80;;;25.98;;
23608;SDS011;11982;50.810;4.442;2022-10-31T04:41:38;55.05;;;26.15;;
23608;SDS011;11982;50.810;4.442;2022-10-31T04:44:04;60.47;;;27.58;;
23608;SDS011;11982;50.810;4.442;2022-10-31T04:46:30;58.38;;;27.83;;
23608;SDS011;11982;50.810;4.442;2022-10-31T04:48:55;58.55;;;27.20;;
23608;SDS011;11982;50.810;4.442;2022-10-31T04:51:21;60.35;;;26.73;;
23608;SDS011;11982;50.810;4.442;2022-10-31T04:53:47;62.80;;;27.80;;
23608;SDS011;11982;50.810;4.442;2022-10-31T04:56:12;54.72;;;25.85;;
23608;SDS011;11982;50.810;4.442;2022-10-31T04:58:38;53.10;;;25.52;;
23608;SDS011;11982;50.810;4.442;2022-10-31T05:01:04;55.80;;;24.67;;
23608;SDS011;11982;50.810;4.442;2022-10-31T05:03:29;54.80;;;25.42;;
23608;SDS011;11982;50.810;4.442;2022-10-31T05:05:55;64.60;;;26.58;;
23608;SDS011;11982;50.810;4.442;2022-10-31T05:08:20;54.40;;;26.58;;
23608;SDS011;11982;50.810;4.442;2022-10-31T05:10:46;53.67;;;26.52;;
23608;SDS011;11982;50.810;4.442;2022-10-31T05:13:11;59.00;;;27.33;;
23608;SDS011;11982;50.810;4.442;2022-10-31T05:15:37;58.30;;;27.55;;
23608;SDS011;11982;50.810;4.442;2022-10-31T05:18:03;58.38;;;27.08;;
23608;SDS011;11982;50.810;4.442;2022-10-31T05:20:29;68.53;;;28.88;;
23608;SDS011;11982;50.810;4.442;2022-10-31T05:22:56;60.83;;;27.38;;
23608;SDS011;11982;50.810;4.442;2022-10-31T05:25:23;57.40;;;28.23;;
23608;SDS011;11982;50.810;4.442;2022-10-31T05:27:51;59.45;;;26.77;;
23608;SDS011;11982;50.810;4.442;2022-10-31T05:30:18;59.30;;;26.00;;
23608;SDS011;11982;50.810;4.442;2022-10-31T05:32:47;58.00;;;25.55;;
23608;SDS011;11982;50.810;4.442;2022-10-31T05:35:15;52.78;;;24.60;;
23608;SDS011;11982;50.810;4.442;2022-10-31T05:37:44;48.05;;;23.85;;
23608;SDS011;11982;50.810;4.442;2022-10-31T05:40:11;53.70;;;25.20;;
23608;SDS011;11982;50.810;4.442;2022-10-31T05:42:40;57.85;;;26.40;;
23608;SDS011;11982;50.810;4.442;2022-10-31T05:45:08;53.30;;;26.58;;
23608;SDS011;11982;50.810;4.442;2022-10-31T05:47:34;48.05;;;25.35;;
23608;SDS011;11982;50.810;4.442;2022-10-31T05:50:00;57.15;;;26.55;;
23608;SDS011;11982;50.810;4.442;2022-10-31T05:52:26;50.63;;;26.52;;
23608;SDS011;11982;50.810;4.442;2022-10-31T05:54:51;58.97;;;27.15;;
23608;SDS011;11982;50.810;4.442;2022-10-31T05:57:17;51.60;;;27.52;;
23608;SDS011;11982;50.810;4.442;2022-10-31T05:59:43;63.15;;;28.85;;
23608;SDS011;11982;50.810;4.442;2022-10-31T06:02:08;58.85;;;30.52;;
23608;SDS011;11982;50.810;4.442;2022-10-31T06:04:34;70.20;;;32.70;;
23608;SDS011;11982;50.810;4.442;2022-10-31T06:07:00;69.15;;;34.03;;
23608;SDS011;11982;50.810;4.442;2022-10-31T06:09:25;67.00;;;30.42;;
23608;SDS011;11982;50.810;4.442;2022-10-31T06:11:51;69.57;;;29.98;;
23608;SDS011;11982;50.810;4.442;2022-10-31T06:14:16;58.97;;;28.33;;
23608;SDS011;11982;50.810;4.442;2022-10-31T06:16:42;58.05;;;27.58;;
23608;SDS011;11982;50.810;4.442;2022-10-31T06:19:07;53.50;;;26.67;;
23608;SDS011;11982;50.810;4.442;2022-10-31T06:21:33;57.55;;;26.50;;
23608;SDS011;11982;50.810;4.442;2022-10-31T06:23:59;49.72;;;25.48;;
23608;SDS011;11982;50.810;4.442;2022-10-31T06:26:24;49.65;;;25.80;;
23608;SDS011;11982;50.810;4.442;2022-10-31T06:28:50;50.03;;;25.70;;
23608;SDS011;11982;50.810;4.442;2022-10-31T06:31:15;53.08;;;25.30;;
23608;SDS011;11982;50.810;4.442;2022-10-31T06:33:41;43.05;;;24.48;;
23608;SDS011;11982;50.810;4.442;2022-10-31T06:36:07;50.08;;;22.92;;
23608;SDS011;11982;50.810;4.442;2022-10-31T06:38:33;41.58;;;22.70;;
23608;SDS011;11982;50.810;4.442;2022-10-31T06:41:02;46.63;;;23.42;;
23608;SDS011;11982;50.810;4.442;2022-10-31T06:43:29;50.42;;;23.60;;
23608;SDS011;11982;50.810;4.442;2022-10-31T06:45:55;43.13;;;24.10;;
23608;SDS011;11982;50.810;4.442;2022-10-31T06:48:20;51.05;;;25.83;;
23608;SDS011;11982;50.810;4.442;2022-10-31T06:50:46;54.75;;;26.80;;
23608;SDS011;11982;50.810;4.442;2022-10-31T06:53:12;53.65;;;26.35;;
23608;SDS011;11982;50.810;4.442;2022-10-31T06:55:39;56.92;;;26.30;;
23608;SDS011;11982;50.810;4.442;2022-10-31T06:58:05;59.53;;;29.08;;
23608;SDS011;11982;50.810;4.442;2022-10-31T07:00:31;61.47;;;28.65;;
23608;SDS011;11982;50.810;4.442;2022-10-31T07:02:58;56.40;;;27.83;;
23608;SDS011;11982;50.810;4.442;2022-10-31T07:05:26;49.65;;;27.58;;
23608;SDS011;11982;50.810;4.442;2022-10-31T07:07:53;56.15;;;27.95;;
23608;SDS011;11982;50.810;4.442;2022-10-31T07:10:20;52.33;;;27.27;;
23608;SDS011;11982;50.810;4.442;2022-10-31T07:12:46;49.53;;;27.20;;
23608;SDS011;11982;50.810;4.442;2022-10-31T07:15:12;59.65;;;26.48;;
23608;SDS011;11982;50.810;4.442;2022-10-31T07:17:37;48.45;;;23.63;;
23608;SDS011;11982;50.810;4.442;2022-10-31T07:20:03;47.00;;;22.73;;
23608;SDS011;11982;50.810;4.442;2022-10-31T07:22:36;43.38;;;23.90;;
23608;SDS011;11982;50.810;4.442;2022-10-31T07:25:02;54.00;;;26.20;;
23608;SDS011;11982;50.810;4.442;2022-10-31T07:27:28;45.08;;;25.17;;
23608;SDS011;11982;50.810;4.442;2022-10-31T07:29:53;48.67;;;25.70;;
23608;SDS011;11982;50.810;4.442;2022-10-31T07:32:19;45.47;;;25.33;;
23608;SDS011;11982;50.810;4.442;2022-10-31T07:34:44;46.20;;;26.27;;
23608;SDS011;11982;50.810;4.442;2022-10-31T07:37:10;43.38;;;25.40;;
23608;SDS011;11982;50.810;4.442;2022-10-31T07:39:35;42.88;;;23.52;;
23608;SDS011;11982;50.810;4.442;2022-10-31T07:42:01;52.25;;;24.48;;
23608;SDS011;11982;50.810;4.442;2022-10-31T07:44:27;42.08;;;23.75;;
23608;SDS011;11982;50.810;4.442;2022-10-31T07:46:52;43.17;;;23.35;;
23608;SDS011;11982;50.810;4.442;2022-10-31T07:49:20;40.42;;;22.95;;
23608;SDS011;11982;50.810;4.442;2022-10-31T07:51:46;35.10;;;21.73;;
23608;SDS011;11982;50.810;4.442;2022-10-31T07:54:11;40.65;;;20.85;;
23608;SDS011;11982;50.810;4.442;2022-10-31T07:56:37;38.35;;;21.38;;
23608;SDS011;11982;50.810;4.442;2022-10-31T07:59:02;34.50;;;21.52;;
23608;SDS011;11982;50.810;4.442;2022-10-31T08:01:28;34.67;;;21.25;;
23608;SDS011;11982;50.810;4.442;2022-10-31T08:03:54;39.58;;;21.52;;
23608;SDS011;11982;50.810;4.442;2022-10-31T08:06:19;40.65;;;22.63;;
23608;SDS011;11982;50.810;4.442;2022-10-31T08:08:45;43.70;;;23.13;;
23608;SDS011;11982;50.810;4.442;2022-10-31T08:11:10;46.80;;;21.85;;
23608;SDS011;11982;50.810;4.442;2022-10-31T08:13:36;44.10;;;21.85;;
23608;SDS011;11982;50.810;4.442;2022-10-31T08:16:01;40.30;;;22.42;;
23608;SDS011;11982;50.810;4.442;2022-10-31T08:18:29;39.20;;;21.40;;
23608;SDS011;11982;50.810;4.442;2022-10-31T08:20:55;38.50;;;19.92;;
23608;SDS011;11982;50.810;4.442;2022-10-31T08:23:20;32.85;;;18.85;;
23608;SDS011;11982;50.810;4.442;2022-10-31T08:25:46;33.00;;;18.63;;
23608;SDS011;11982;50.810;4.442;2022-10-31T08:28:12;35.17;;;18.77;;
23608;SDS011;11982;50.810;4.442;2022-10-31T08:30:39;29.80;;;17.63;;
23608;SDS011;11982;50.810;4.442;2022-10-31T08:35:38;34.83;;;17.17;;
23608;SDS011;11982;50.810;4.442;2022-10-31T08:38:04;31.02;;;17.73;;
23608;SDS011;11982;50.810;4.442;2022-10-31T08:40:31;31.63;;;17.02;;
23608;SDS011;11982;50.810;4.442;2022-10-31T08:42:58;30.23;;;17.73;;
23608;SDS011;11982;50.810;4.442;2022-10-31T08:45:25;30.08;;;15.93;;
23608;SDS011;11982;50.810;4.442;2022-10-31T08:47:51;25.98;;;15.52;;
23608;SDS011;11982;50.810;4.442;2022-10-31T08:50:17;27.80;;;16.15;;
23608;SDS011;11982;50.810;4.442;2022-10-31T08:52:43;31.20;;;16.77;;
23608;SDS011;11982;50.810;4.442;2022-10-31T08:55:08;30.27;;;15.95;;
23608;SDS011;11982;50.810;4.442;2022-10-31T08:57:34;21.90;;;14.57;;
23608;SDS011;11982;50.810;4.442;2022-10-31T09:00:00;29.70;;;15.88;;
23608;SDS011;11982;50.810;4.442;2022-10-31T09:02:25;23.45;;;14.98;;
23608;SDS011;11982;50.810;4.442;2022-10-31T09:04:51;23.92;;;15.57;;
23608;SDS011;11982;50.810;4.442;2022-10-31T09:07:16;25.17;;;15.60;;
23608;SDS011;11982;50.810;4.442;2022-10-31T09:09:42;28.20;;;15.52;;
23608;SDS011;11982;50.810;4.442;2022-10-31T09:12:07;25.67;;;15.63;;
23608;SDS011;11982;50.810;4.442;2022-10-31T09:14:33;25.63;;;15.27;;
23608;SDS011;11982;50.810;4.442;2022-10-31T09:16:58;24.67;;;15.30;;
23608;SDS011;11982;50.810;4.442;2022-10-31T09:19:24;21.00;;;13.95;;
23608;SDS011;11982;50.810;4.442;2022-10-31T09:21:53;33.67;;;15.38;;
23608;SDS011;11982;50.810;4.442;2022-10-31T09:24:19;24.10;;;13.95;;
23608;SDS011;11982;50.810;4.442;2022-10-31T09:26:45;20.30;;;13.25;;
23608;SDS011;11982;50.810;4.442;2022-10-31T09:29:10;29.83;;;14.30;;
23608;SDS011;11982;50.810;4.442;2022-10-31T09:31:36;28.38;;;14.45;;
23608;SDS011;11982;50.810;4.442;2022-10-31T09:34:01;22.48;;;14.07;;
23608;SDS011;11982;50.810;4.442;2022-10-31T09:36:27;27.55;;;15.43;;
23608;SDS011;11982;50.810;4.442;2022-10-31T09:38:53;23.50;;;13.20;;
23608;SDS011;11982;50.810;4.442;2022-10-31T09:41:24;22.75;;;13.50;;
23608;SDS011;11982;50.810;4.442;2022-10-31T09:46:53;23.05;;;13.52;;
23608;SDS011;11982;50.810;4.442;2022-10-31T09:54:40;22.17;;;12.80;;
23608;SDS011;11982;50.810;4.442;2022-10-31T09:57:16;21.05;;;13.05;;
23608;SDS011;11982;50.810;4.442;2022-10-31T09:59:47;21.13;;;12.60;;
23608;SDS011;11982;50.810;4.442;2022-10-31T10:02:29;19.52;;;12.25;;
23608;SDS011;11982;50.810;4.442;2022-10-31T10:07:49;28.27;;;13.00;;
23608;SDS011;11982;50.810;4.442;2022-10-31T10:10:50;22.45;;;12.55;;
23608;SDS011;11982;50.810;4.442;2022-10-31T10:19:32;23.80;;;11.77;;
23608;SDS011;11982;50.810;4.442;2022-10-31T10:30:28;21.30;;;12.07;;
23608;SDS011;11982;50.810;4.442;2022-10-31T10:33:02;21.58;;;11.90;;
23608;SDS011;11982;50.810;4.442;2022-10-31T10:35:52;24.80;;;12.05;;
23608;SDS011;11982;50.810;4.442;2022-10-31T10:38:26;21.17;;;10.98;;
23608;SDS011;11982;50.810;4.442;2022-10-31T10:40:52;18.70;;;12.00;;
23608;SDS011;11982;50.810;4.442;2022-10-31T10:51:04;25.70;;;12.20;;
23608;SDS011;11982;50.810;4.442;2022-10-31T10:56:34;22.23;;;11.32;;
23608;SDS011;11982;50.810;4.442;2022-10-31T10:59:07;24.58;;;12.45;;
23608;SDS011;11982;50.810;4.442;2022-10-31T11:01:38;21.60;;;11.30;;
23608;SDS011;11982;50.810;4.442;2022-10-31T11:04:11;22.33;;;10.38;;
23608;SDS011;11982;50.810;4.442;2022-10-31T11:07:11;21.83;;;10.82;;
23608;SDS011;11982;50.810;4.442;2022-10-31T11:09:37;19.67;;;10.45;;
23608;SDS011;11982;50.810;4.442;2022-10-31T11:12:09;24.88;;;10.82;;
23608;SDS011;11982;50.810;4.442;2022-10-31T11:14:51;21.80;;;10.38;;
23608;SDS011;11982;50.810;4.442;2022-10-31T11:17:28;19.80;;;10.68;;
23608;SDS011;11982;50.810;4.442;2022-10-31T11:20:01;27.90;;;10.75;;
23608;SDS011;11982;50.810;4.442;2022-10-31T11:22:39;21.67;;;11.00;;
23608;SDS011;11982;50.810;4.442;2022-10-31T11:27:57;25.65;;;11.25;;
23608;SDS011;11982;50.810;4.442;2022-10-31T11:30:26;21.90;;;10.52;;
23608;SDS011;11982;50.810;4.442;2022-10-31T11:32:53;28.02;;;10.80;;
23608;SDS011;11982;50.810;4.442;2022-10-31T11:35:19;20.67;;;10.00;;
23608;SDS011;11982;50.810;4.442;2022-10-31T11:37:48;22.88;;;11.25;;
23608;SDS011;11982;50.810;4.442;2022-10-31T11:40:18;24.85;;;11.23;;
23608;SDS011;11982;50.810;4.442;2022-10-31T11:42:46;26.10;;;10.82;;
23608;SDS011;11982;50.810;4.442;2022-10-31T11:47:53;23.08;;;11.35;;
23608;SDS011;11982;50.810;4.442;2022-10-31T11:50:22;24.98;;;11.63;;
23608;SDS011;11982;50.810;4.442;2022-10-31T11:53:03;18.75;;;11.02;;
23608;SDS011;11982;50.810;4.442;2022-10-31T11:55:37;19.95;;;10.23;;
23608;SDS011;11982;50.810;4.442;2022-10-31T11:58:03;22.85;;;10.98;;
23608;SDS011;11982;50.810;4.442;2022-10-31T12:00:33;17.77;;;10.50;;
23608;SDS011;11982;50.810;4.442;2022-10-31T12:05:49;17.83;;;9.70;;
23608;SDS011;11982;50.810;4.442;2022-10-31T12:08:38;23.25;;;10.00;;
23608;SDS011;11982;50.810;4.442;2022-10-31T12:16:48;17.67;;;8.73;;
23608;SDS011;11982;50.810;4.442;2022-10-31T12:27:59;19.98;;;8.68;;
23608;SDS011;11982;50.810;4.442;2022-10-31T12:30:44;23.30;;;9.68;;
23608;SDS011;11982;50.810;4.442;2022-10-31T12:48:42;21.50;;;9.43;;
23608;SDS011;11982;50.810;4.442;2022-10-31T12:51:36;22.17;;;8.75;;
23608;SDS011;11982;50.810;4.442;2022-10-31T12:56:58;24.23;;;8.63;;
23608;SDS011;11982;50.810;4.442;2022-10-31T13:00:23;22.77;;;8.65;;
23608;SDS011;11982;50.810;4.442;2022-10-31T13:05:41;20.45;;;9.02;;
23608;SDS011;11982;50.810;4.442;2022-10-31T13:08:17;21.98;;;9.25;;
23608;SDS011;11982;50.810;4.442;2022-10-31T13:13:47;19.73;;;8.80;;
23608;SDS011;11982;50.810;4.442;2022-10-31T13:16:32;27.38;;;10.10;;
23608;SDS011;11982;50.810;4.442;2022-10-31T13:19:04;20.73;;;8.68;;
23608;SDS011;11982;50.810;4.442;2022-10-31T13:24:31;24.45;;;8.80;;
23608;SDS011;11982;50.810;4.442;2022-10-31T13:27:02;18.65;;;8.80;;
23608;SDS011;11982;50.810;4.442;2022-10-31T13:30:00;22.33;;;9.00;;
23608;SDS011;11982;50.810;4.442;2022-10-31T13:32:36;21.55;;;8.50;;
23608;SDS011;11982;50.810;4.442;2022-10-31T13:35:53;22.85;;;9.00;;
23608;SDS011;11982;50.810;4.442;2022-10-31T13:41:02;19.88;;;7.60;;
23608;SDS011;11982;50.810;4.442;2022-10-31T13:43:58;21.83;;;8.35;;
23608;SDS011;11982;50.810;4.442;2022-10-31T13:48:56;20.60;;;8.65;;
23608;SDS011;11982;50.810;4.442;2022-10-31T13:51:25;19.25;;;8.20;;
23608;SDS011;11982;50.810;4.442;2022-10-31T13:53:57;17.58;;;7.68;;
23608;SDS011;11982;50.810;4.442;2022-10-31T13:56:31;22.33;;;7.38;;
23608;SDS011;11982;50.810;4.442;2022-10-31T14:01:26;19.50;;;7.30;;
23608;SDS011;11982;50.810;4.442;2022-10-31T14:04:02;18.75;;;7.70;;
23608;SDS011;11982;50.810;4.442;2022-10-31T14:09:26;15.25;;;7.43;;
23608;SDS011;11982;50.810;4.442;2022-10-31T14:12:42;19.92;;;7.85;;
23608;SDS011;11982;50.810;4.442;2022-10-31T14:14:51;15.85;;;6.40;;
23608;SDS011;11982;50.810;4.442;2022-10-31T14:17:23;16.48;;;7.22;;
23608;SDS011;11982;50.810;4.442;2022-10-31T14:22:35;17.05;;;6.40;;
23608;SDS011;11982;50.810;4.442;2022-10-31T14:25:24;21.67;;;7.07;;
23608;SDS011;11982;50.810;4.442;2022-10-31T14:27:56;14.80;;;6.88;;
23608;SDS011;11982;50.810;4.442;2022-10-31T14:30:23;15.35;;;6.47;;
23608;SDS011;11982;50.810;4.442;2022-10-31T14:32:51;16.77;;;6.47;;
23608;SDS011;11982;50.810;4.442;2022-10-31T14:35:20;19.27;;;6.90;;
23608;SDS011;11982;50.810;4.442;2022-10-31T14:46:38;20.15;;;7.53;;
23608;SDS011;11982;50.810;4.442;2022-10-31T14:51:46;18.77;;;8.27;;
23608;SDS011;11982;50.810;4.442;2022-10-31T14:54:25;24.83;;;8.15;;
23608;SDS011;11982;50.810;4.442;2022-10-31T14:56:59;21.70;;;8.15;;
23608;SDS011;11982;50.810;4.442;2022-10-31T14:59:32;20.23;;;8.60;;
23608;SDS011;11982;50.810;4.442;2022-10-31T15:02:08;22.50;;;8.10;;
23608;SDS011;11982;50.810;4.442;2022-10-31T15:04:40;22.73;;;9.35;;
23608;SDS011;11982;50.810;4.442;2022-10-31T15:07:19;19.33;;;8.45;;
23608;SDS011;11982;50.810;4.442;2022-10-31T15:10:04;19.27;;;8.75;;
23608;SDS011;11982;50.810;4.442;2022-10-31T15:12:43;18.55;;;8.90;;
23608;SDS011;11982;50.810;4.442;2022-10-31T15:15:13;23.27;;;8.60;;
23608;SDS011;11982;50.810;4.442;2022-10-31T15:17:44;23.73;;;9.50;;
23608;SDS011;11982;50.810;4.442;2022-10-31T15:20:17;26.90;;;10.67;;
23608;SDS011;11982;50.810;4.442;2022-10-31T15:22:48;21.95;;;9.38;;
23608;SDS011;11982;50.810;4.442;2022-10-31T15:25:16;24.92;;;11.18;;
23608;SDS011;11982;50.810;4.442;2022-10-31T15:27:47;29.52;;;11.77;;
23608;SDS011;11982;50.810;4.442;2022-10-31T15:30:32;24.50;;;9.77;;
23608;SDS011;11982;50.810;4.442;2022-10-31T15:33:00;22.00;;;10.70;;
23608;SDS011;11982;50.810;4.442;2022-10-31T15:35:30;28.95;;;10.85;;
23608;SDS011;11982;50.810;4.442;2022-10-31T15:37:56;29.67;;;11.80;;
23608;SDS011;11982;50.810;4.442;2022-10-31T15:40:23;28.25;;;12.30;;
23608;SDS011;11982;50.810;4.442;2022-10-31T15:42:51;30.15;;;11.93;;
23608;SDS011;11982;50.810;4.442;2022-10-31T15:45:21;34.13;;;13.55;;
23608;SDS011;11982;50.810;4.442;2022-10-31T15:50:45;29.58;;;12.00;;
23608;SDS011;11982;50.810;4.442;2022-10-31T15:53:16;25.85;;;12.68;;
23608;SDS011;11982;50.810;4.442;2022-10-31T15:55:48;27.02;;;13.18;;
23608;SDS011;11982;50.810;4.442;2022-10-31T15:58:16;28.95;;;13.27;;
23608;SDS011;11982;50.810;4.442;2022-10-31T16:00:43;23.85;;;12.40;;
23608;SDS011;11982;50.810;4.442;2022-10-31T16:11:18;37.80;;;14.45;;
23608;SDS011;11982;50.810;4.442;2022-10-31T16:16:41;34.17;;;15.20;;
23608;SDS011;11982;50.810;4.442;2022-10-31T16:19:21;33.13;;;14.50;;
23608;SDS011;11982;50.810;4.442;2022-10-31T16:21:52;28.05;;;13.38;;
23608;SDS011;11982;50.810;4.442;2022-10-31T16:24:27;27.40;;;14.73;;
23608;SDS011;11982;50.810;4.442;2022-10-31T16:27:00;33.38;;;14.63;;
23608;SDS011;11982;50.810;4.442;2022-10-31T16:29:33;34.60;;;14.10;;
23608;SDS011;11982;50.810;4.442;2022-10-31T16:32:03;31.58;;;13.38;;
23608;SDS011;11982;50.810;4.442;2022-10-31T16:34:28;33.10;;;13.93;;
23608;SDS011;11982;50.810;4.442;2022-10-31T16:36:54;31.20;;;15.23;;
23608;SDS011;11982;50.810;4.442;2022-10-31T16:39:20;39.08;;;14.10;;
23608;SDS011;11982;50.810;4.442;2022-10-31T16:41:51;27.48;;;14.65;;
23608;SDS011;11982;50.810;4.442;2022-10-31T16:44:22;34.25;;;13.65;;
23608;SDS011;11982;50.810;4.442;2022-10-31T16:46:59;33.53;;;13.80;;
23608;SDS011;11982;50.810;4.442;2022-10-31T16:49:32;31.95;;;13.65;;
23608;SDS011;11982;50.810;4.442;2022-10-31T16:51:57;29.52;;;14.43;;
23608;SDS011;11982;50.810;4.442;2022-10-31T16:54:23;33.25;;;13.02;;
23608;SDS011;11982;50.810;4.442;2022-10-31T16:56:48;29.95;;;13.00;;
23608;SDS011;11982;50.810;4.442;2022-10-31T16:59:14;27.60;;;13.27;;
23608;SDS011;11982;50.810;4.442;2022-10-31T17:01:40;24.63;;;12.80;;
23608;SDS011;11982;50.810;4.442;2022-10-31T17:04:11;27.88;;;12.68;;
23608;SDS011;11982;50.810;4.442;2022-10-31T17:06:39;26.23;;;12.48;;
23608;SDS011;11982;50.810;4.442;2022-10-31T17:09:05;22.95;;;12.10;;
23608;SDS011;11982;50.810;4.442;2022-10-31T17:11:30;28.40;;;12.15;;
23608;SDS011;11982;50.810;4.442;2022-10-31T17:13:56;27.83;;;11.93;;
23608;SDS011;11982;50.810;4.442;2022-10-31T17:16:21;29.10;;;12.90;;
23608;SDS011;11982;50.810;4.442;2022-10-31T17:18:47;27.05;;;12.13;;